Pelham, AL (35124)

4:06 AM CDT on June 30, 2015 (GMT -0500)
Holland Lakes | | Change Station
CLOSE
Current Station
Personal Weather Station
Location: Pelham, AL
Elevation: 452 ft
Nearby Weather Stations

Elev 452 ft 33.27 °N, 86.81 °W | Updated 31 seconds ago

Clear
Clear
73.2 °F
Feels Like 73.2 °F
N
3.0
Wind Variable Wind from SSE
Gusts 5.0 mph

Today
High -- | Low -- °F
--% Chance of Precip.
Yesterday
High -- | Low -- °F
Precip. -- in
5:40 AM 8:00 PM
Waxing Gibbous, 96% visible
Pressure 29.99 in
Visibility 7.0 miles
Clouds Few 700 ft
Dew Point 72 °F
Humidity 95%
Rainfall in
Snow Depth Not available.
UV 0 out of 12
Pollen 3.30 out of 12
Air Quality Not available.
Flu Activity Sporadic
SPECI KEET 300902Z AUTO 19003KT 7SM FEW007 23/22 A2999 RMK AO2 T02280222

More Conditions Fewer Conditions

Pressure 29.99 in
Visibility 7.0 miles
Clouds Few 700 ft
Dew Point 72 °F
Humidity 95%
Rainfall in
Snow Depth Not available.
UV 0 out of 12
Pollen 3.30 out of 12
Air Quality Not available.
Flu Activity Sporadic
SPECI KEET 300902Z AUTO 19003KT 7SM FEW007 23/22 A2999 RMK AO2 T02280222

More Conditions Fewer Conditions

10-Day Weather Forecast

×

Almanac

Astronomy

Jun. 30, 2015 Rise Set
Actual Time
Civil Twilight
Nautical Twilight
Astronomical Twilight
Moon
Length of Visible Light
Length of Day
Tomorrow will be .
, % of the Moon is Illuminated

Today's Extremes

State Highs State Lows

Community

WunderPhotos

Upload Photos

1,833,983 photos uploaded!

WunderBlogs® & News

Nearby

Air Quality

  Air Quality AQ Index Pollutant
Not available.

Snow Depth

Station Depth Elevation

Earthquake Activity

City Distance Mag. Time & Date
Minimum magnitude displayed is 2.5.

Coastal Water Temperatures

Place Temperature

Stations

Nearby Weather Stations

Station Location Temp. Windchill Dew Point Humidity Wind Precip. Elev Updated Type